Terminal Aerodrome Forecast
Issued by NWS Atlanta, GA

Home | Current Version | Previous Version | Text Only | Print | Product List | Glossary On
Versions: 1 2 3 4 5 6 7 8 9 10 11 12 13 14 15
000
FTUS42 KFFC 230200 AAA
TAFCSG
TAF AMD
KCSG 230200Z 2302/2324 13008KT P6SM BKN040
     FM230300 13007KT P6SM SHRA OVC012
      TEMPO 2306/2310 VRB10G20KT TSRA BKN010CB
     FM231000 14007KT 6SM SHRA OVC012
     FM231400 21010G20KT P6SM SHRA OVC012
     FM231800 21009KT P6SM SHRA SCT040=

USA.gov is the U.S. government's official web portal to all federal, state and local government web resources and services.